• Join FlightAware (Why Join?)
  • Login
  • US Flag 
08:06AM EDT


 

Airport Tracker/Info


-or-


 

Live Flight TrackerFlight Track Log ✈ UAL3821 ✈ 25-Apr-2013 ✈ KEWR - KMKE

Flight Track Log - Related Links

Times and Time Zones

All times are in EDT time to prevent confusion due to time zone crossing. See the UAL3821 flight status page for this flight to view local times or setup timezone preferences in your user account.

Time Position Orientation Groundspeed Altitude Reporting Facility
EDT Latitude Longitude Course Direction KTS MPH feet Rate Location/Type
10:53AM 40.7333 -74.1333 298° West 182 209 1,900  Level New York TRACON
10:54AM 40.7667 -74.1833 311° West 219 252 4,100 2,160 Climbing New York TRACON
10:55AM 40.8000 -74.2500 303° West 232 267 6,300 2,100 Climbing New York TRACON
10:56AM 40.9672 -74.4957 319° Northwest  Level FlightAware Approximate
10:56AM 40.8500 -74.3000 323° Northwest 248 285 8,200  Level New York TRACON
10:57AM 41.0371 -74.5810 316° Northwest  Level FlightAware Approximate
10:57AM 40.9000 -74.3833 308° West 272 313 9,900  Level New York TRACON
10:58AM 41.1054 -74.6687 316° Northwest  Level FlightAware Approximate
10:58AM 40.9183 -74.4042 319° Northwest 280 322 10,000  Level New York Center
10:59AM 41.1509 -74.7607 298° West  Level FlightAware Approximate
10:59AM 40.9703 -74.4756 314° West 339 390 10,000  Level New York Center
11:00AM 41.0550 -74.5600 323° Northwest 333 383 11,000 1,080 Climbing New York Center
11:01AM 41.1350 -74.5342 14° North 380 437 12,300 1,080 Climbing New York Center
11:02AM 41.1969 -74.6147 316° Northwest 300 345 13,300 960 Climbing New York Center
11:03AM 41.1564 -74.7089 240° Southwest 206 237 14,200 1,020 Climbing New York Center
11:04AM 41.1981 -74.8328 294° West 301 346 15,400 1,200 Climbing New York Center
11:05AM 41.2461 -74.9431 300° West 343 395 16,600 960 Climbing New York Center
11:06AM 41.2922 -75.0536 299° West 350 403 17,400 600 Climbing New York Center
11:07AM 41.3403 -75.1644 300° West 350 403 17,900 600 Climbing New York Center
11:08AM 41.3842 -75.2669 300° West 350 403 18,700 780 Climbing New York Center
11:09AM 41.4339 -75.3839 300° West 356 410 19,500 840 Climbing New York Center
11:10AM 41.4814 -75.5006 299° West 361 415 20,400 1,020 Climbing New York Center
11:11AM 41.5178 -75.6278 291° West 361 415 21,600 1,140 Climbing New York Center
11:12AM 41.5525 -75.7494 291° West 361 415 22,700 1,080 Climbing New York Center
11:13AM 41.5869 -75.8686 291° West 355 409 23,800 1,080 Climbing New York Center
11:14AM 41.6192 -75.9903 290° West 350 403 24,900 1,080 Climbing New York Center
11:15AM 41.6536 -76.1069 292° West 350 403 26,000 1,080 Climbing New York Center
11:16AM 41.6858 -76.2233 290° West 345 397 27,100 1,020 Climbing New York Center
11:17AM 41.7181 -76.3372 291° West 339 390 28,100 1,020 Climbing New York Center
11:18AM 41.7514 -76.4650 289° West 339 390 29,200 900 Climbing New York Center
11:19AM 41.7819 -76.5650 292° West 339 390 30,000 840 Climbing New York Center
11:20AM 41.8139 -76.6792 291° West 339 390 30,900 900 Climbing New York Center
11:21AM 41.8456 -76.7961 290° West 339 390 31,900 540 Climbing New York Center
11:22AM 41.8789 -76.9189 290° West 339 390 32,000  Climbing New York Center
11:23AM 41.9161 -77.0503 291° West 345 397 32,000  Level Cleveland Center
11:24AM 41.9492 -77.1769 289° West 375 432 32,000  Level Cleveland Center
11:25AM 41.9842 -77.3064 290° West 380 437 32,000 180 Level Cleveland Center
11:26AM 42.0217 -77.4497 289° West 380 437 32,400 780 Climbing Cleveland Center
11:27AM 42.0561 -77.5767 290° West 374 430 33,600 780 Climbing Cleveland Center
11:28AM 42.0908 -77.7039 290° West 363 418 34,000 180 Climbing Cleveland Center
11:29AM 42.1253 -77.8339 290° West 363 418 34,000  Level Cleveland Center
11:30AM 42.1594 -77.9642 290° West 363 418 34,000  Level Cleveland Center
11:31AM 42.1936 -78.0944 290° West 363 418 34,000  Level Cleveland Center
11:32AM 42.2278 -78.2278 289° West 363 418 34,000  Level Cleveland Center
11:33AM 42.2594 -78.3556 289° West 363 418 34,000  Level Cleveland Center
11:34AM 42.2931 -78.4864 289° West 363 418 34,000  Level Cleveland Center
11:35AM 42.3267 -78.6172 289° West 363 418 34,000  Level Cleveland Center
11:37AM 42.3936 -78.8822 289° West 363 418 34,000  Level Cleveland Center
11:38AM 42.4267 -79.0192 288° West 368 423 34,000  Level Cleveland Center
11:39AM 42.4597 -79.1536 288° West 378 435 34,000  Level Cleveland Center
11:40AM 42.4881 -79.2628 289° West 388 447 34,000  Level Cleveland Center
11:41AM 42.5003 -79.4314 276° West 387 445 34,000  Level Cleveland Center
11:42AM 42.5081 -79.5750 274° West 387 445 34,000  Level Cleveland Center
11:43AM 42.5133 -79.7186 273° West 387 445 34,000  Level Cleveland Center
11:44AM 42.5206 -79.8592 274° West 387 445 34,000  Level Cleveland Center
11:45AM 42.5256 -80.0083 273° West 387 445 34,000  Level Cleveland Center
11:46AM 42.5303 -80.1353 273° West 381 438 34,000  Level Cleveland Center
11:47AM 42.5347 -80.2789 272° West 386 444 34,000  Level Cleveland Center
11:48AM 42.5414 -80.4225 274° West 391 450 34,000  Level Cleveland Center
11:49AM 42.5478 -80.5719 273° West 391 450 34,000  Level Cleveland Center
11:50AM 42.5539 -80.7156 273° West 387 445 34,000  Level Cleveland Center
11:51AM 42.5578 -80.8594 272° West 387 445 34,000  Level Cleveland Center
11:52AM 42.5636 -81.0061 273° West 387 445 34,000  Level Cleveland Center
11:53AM 42.5692 -81.1528 273° West 387 445 34,000  Level Cleveland Center
11:54AM 42.5747 -81.3106 273° West 382 440 34,000  Level Cleveland Center
11:55AM 42.5819 -81.4544 274° West 382 440 34,000  Level Cleveland Center
11:56AM 42.6078 -81.5958 284° West 387 445 34,000  Level Cleveland Center
11:57AM 42.6336 -81.7375 284° West 392 451 34,000  Level Cleveland Center
11:58AM 42.6531 -81.8647 282° West 392 451 34,000  Level Cleveland Center
11:59AM 42.6786 -82.0094 284° West 392 451 34,000  Level Cleveland Center
12:00PM 42.7039 -82.1483 284° West 392 451 34,000  Level Cleveland Center
12:01PM 42.7269 -82.2875 283° West 387 445 34,000  Level Cleveland Center
12:02PM 42.7592 -82.4806 283° West 380 437 34,000  Level Cleveland Center
12:03PM 42.7839 -82.6200 284° West 374 430 34,000  Level Cleveland Center
12:04PM 42.8064 -82.7622 282° West 374 430 34,000  Level Cleveland Center
12:05PM 42.8286 -82.9017 282° West 374 430 34,000  Level Cleveland Center
12:06PM 42.8531 -83.0386 284° West 374 430 34,000  Level Cleveland Center
12:07PM 42.8750 -83.1783 282° West 374 430 34,000  Level Cleveland Center
12:08PM 42.8967 -83.3181 282° West 374 430 34,000  Level Cleveland Center
12:09PM 42.9183 -83.4553 282° West 374 430 34,000  Level Cleveland Center
12:10PM 42.9397 -83.5953 282° West 374 430 34,000  Level Cleveland Center
12:11PM 42.9650 -83.7497 283° West 374 430 34,000  Level Cleveland Center
12:12PM 42.9775 -83.8922 277° West 374 430 34,000  Level Cleveland Center
12:14PM 43.0083 -84.1814 278° West 375 432 34,000  Level Chicago Center
12:15PM 43.0244 -84.3506 277° West 375 432 34,000  Level Chicago Center
12:16PM 43.0369 -84.4925 277° West 378 435 34,000  Level Chicago Center
12:17PM 43.0508 -84.6331 278° West 374 430 34,000  Level Chicago Center
12:18PM 43.0625 -84.7753 276° West 377 434 34,000  Level Chicago Center
12:19PM 43.0758 -84.9167 277° West 376 433 34,000  Level Chicago Center
12:20PM 43.0878 -85.0586 277° West 378 435 34,000 -300 Level Chicago Center
12:21PM 43.1022 -85.2297 277° West 379 436 33,500 -960 Descending Chicago Center
12:22PM 43.1144 -85.3731 277° West 380 437 32,100 -1,500 Descending Chicago Center
12:24PM 43.1269 -85.5161 277° West 380 437 30,500 -1,440 Descending Chicago Center
12:25PM 43.1383 -85.6558 276° West 374 430 29,100 -1,320 Descending Chicago Center
12:26PM 43.1500 -85.7922 277° West 367 422 27,800 -1,320 Descending Chicago Center
12:27PM 43.1625 -85.9583 276° West 373 429 26,400 -1,380 Descending Chicago Center
12:28PM 43.1689 -86.0978 274° West 376 433 25,000 -1,380 Descending Chicago Center
12:29PM 43.1664 -86.2383 269° West 377 434 23,600 -1,440 Descending Chicago Center
12:30PM 43.1650 -86.3753 269° West 364 419 22,100 -1,560 Descending Chicago Center
12:31PM 43.1625 -86.5361 269° West 355 409 20,400 -1,740 Descending Chicago Center
12:32PM 43.1594 -86.6669 268° West 349 402 18,600 -1,800 Descending Chicago Center
12:33PM 43.1569 -86.7961 269° West 343 395 16,800 -1,800 Descending Chicago Center
12:34PM 43.1544 -86.9228 268° West 335 386 14,900 -1,800 Descending Chicago Center
12:35PM 43.1492 -87.0419 267° West 321 369 13,200 -1,680 Descending Chicago Center
12:36PM 43.1208 -87.1594 252° West 276 318 11,500 -1,500 Descending Chicago Center
12:37PM 43.0975 -87.2544 251° West 265 305 10,100 -1,440 Descending Chicago Center
12:38PM 43.0747 -87.3500 252° West 266 306 8,600 -1,380 Descending Chicago Center
12:39PM 43.0533 -87.4414 252° West 258 297 7,300 -1,500 Descending Chicago Center
12:40PM 43.0267 -87.5483 251° West 255 293 5,600 -1,440 Descending Chicago Center
12:41PM 43.0064 -87.6347 252° West 245 282 4,400 -900 Descending Chicago Center
12:42PM 42.9903 -87.7033 252° West 204 235 3,800 -900 Descending Chicago Center
12:43PM 42.9758 -87.7625 252° West 172 198 2,600 -1,200 Descending Chicago Center